sensor_id;sensor_type;location;lat;lon;timestamp;temperature;humidity
78876;DHT22;68253;52.506;5.486;2023-03-13T00:01:27;19.10;57.60
78876;DHT22;68253;52.506;5.486;2023-03-13T00:03:53;19.10;57.60
78876;DHT22;68253;52.506;5.486;2023-03-13T00:06:22;19.10;57.60
78876;DHT22;68253;52.506;5.486;2023-03-13T00:08:48;19.00;57.60
78876;DHT22;68253;52.506;5.486;2023-03-13T00:11:15;19.00;57.60
78876;DHT22;68253;52.506;5.486;2023-03-13T00:13:42;19.00;57.60
78876;DHT22;68253;52.506;5.486;2023-03-13T00:16:11;18.90;57.60
78876;DHT22;68253;52.506;5.486;2023-03-13T00:18:37;18.90;57.60
78876;DHT22;68253;52.506;5.486;2023-03-13T00:21:06;18.80;57.60
78876;DHT22;68253;52.506;5.486;2023-03-13T00:23:34;18.70;57.70
78876;DHT22;68253;52.506;5.486;2023-03-13T00:26:03;18.70;57.70
78876;DHT22;68253;52.506;5.486;2023-03-13T00:28:30;18.70;57.70
78876;DHT22;68253;52.506;5.486;2023-03-13T00:31:07;18.60;57.70
78876;DHT22;68253;52.506;5.486;2023-03-13T00:33:38;18.60;57.80
78876;DHT22;68253;52.506;5.486;2023-03-13T00:36:06;18.60;57.80
78876;DHT22;68253;52.506;5.486;2023-03-13T00:38:34;18.60;57.80
78876;DHT22;68253;52.506;5.486;2023-03-13T00:41:14;18.60;57.70
78876;DHT22;68253;52.506;5.486;2023-03-13T00:43:42;18.60;57.70
78876;DHT22;68253;52.506;5.486;2023-03-13T00:46:09;18.50;57.80
78876;DHT22;68253;52.506;5.486;2023-03-13T00:48:36;18.50;57.80
78876;DHT22;68253;52.506;5.486;2023-03-13T00:51:03;18.50;57.70
78876;DHT22;68253;52.506;5.486;2023-03-13T00:53:29;18.50;57.70
78876;DHT22;68253;52.506;5.486;2023-03-13T00:56:00;18.50;57.80
78876;DHT22;68253;52.506;5.486;2023-03-13T00:58:29;18.40;57.80
78876;DHT22;68253;52.506;5.486;2023-03-13T01:00:55;18.40;57.80
78876;DHT22;68253;52.506;5.486;2023-03-13T01:03:23;18.40;57.80
78876;DHT22;68253;52.506;5.486;2023-03-13T01:05:59;18.40;57.80
78876;DHT22;68253;52.506;5.486;2023-03-13T01:08:27;18.30;57.80
78876;DHT22;68253;52.506;5.486;2023-03-13T01:11:07;18.30;57.90
78876;DHT22;68253;52.506;5.486;2023-03-13T01:13:34;18.30;57.90
78876;DHT22;68253;52.506;5.486;2023-03-13T01:16:09;18.20;57.90
78876;DHT22;68253;52.506;5.486;2023-03-13T01:18:36;18.20;57.90
78876;DHT22;68253;52.506;5.486;2023-03-13T01:21:03;18.20;57.90
78876;DHT22;68253;52.506;5.486;2023-03-13T01:23:30;18.20;57.90
78876;DHT22;68253;52.506;5.486;2023-03-13T01:25:56;18.20;57.90
78876;DHT22;68253;52.506;5.486;2023-03-13T01:28:24;18.20;57.90
78876;DHT22;68253;52.506;5.486;2023-03-13T01:30:50;18.10;58.00
78876;DHT22;68253;52.506;5.486;2023-03-13T01:33:17;18.10;57.90
78876;DHT22;68253;52.506;5.486;2023-03-13T01:35:43;18.10;57.90
78876;DHT22;68253;52.506;5.486;2023-03-13T01:38:09;18.10;58.00
78876;DHT22;68253;52.506;5.486;2023-03-13T01:40:44;18.10;58.00
78876;DHT22;68253;52.506;5.486;2023-03-13T01:43:20;18.10;57.90
78876;DHT22;68253;52.506;5.486;2023-03-13T01:46:03;18.10;58.00
78876;DHT22;68253;52.506;5.486;2023-03-13T01:51:43;18.00;58.00
78876;DHT22;68253;52.506;5.486;2023-03-13T01:57:02;18.00;58.00
78876;DHT22;68253;52.506;5.486;2023-03-13T01:59:32;18.00;58.00
78876;DHT22;68253;52.506;5.486;2023-03-13T02:02:02;18.00;58.00
78876;DHT22;68253;52.506;5.486;2023-03-13T02:04:34;18.00;58.00
78876;DHT22;68253;52.506;5.486;2023-03-13T02:07:04;18.00;58.00
78876;DHT22;68253;52.506;5.486;2023-03-13T02:09:33;18.00;58.00
78876;DHT22;68253;52.506;5.486;2023-03-13T02:12:05;18.00;58.00
78876;DHT22;68253;52.506;5.486;2023-03-13T02:14:34;18.00;58.00
78876;DHT22;68253;52.506;5.486;2023-03-13T02:17:02;18.00;58.00
78876;DHT22;68253;52.506;5.486;2023-03-13T02:19:49;17.90;58.00
78876;DHT22;68253;52.506;5.486;2023-03-13T02:27:30;17.80;58.10
78876;DHT22;68253;52.506;5.486;2023-03-13T02:29:57;17.80;58.00
78876;DHT22;68253;52.506;5.486;2023-03-13T02:32:25;17.80;58.00
78876;DHT22;68253;52.506;5.486;2023-03-13T02:34:56;17.80;58.00
78876;DHT22;68253;52.506;5.486;2023-03-13T02:37:26;17.80;58.00
78876;DHT22;68253;52.506;5.486;2023-03-13T02:39:54;17.80;58.00
78876;DHT22;68253;52.506;5.486;2023-03-13T02:42:22;17.80;58.00
78876;DHT22;68253;52.506;5.486;2023-03-13T02:44:49;17.80;58.00
78876;DHT22;68253;52.506;5.486;2023-03-13T02:47:22;17.80;58.00
78876;DHT22;68253;52.506;5.486;2023-03-13T02:49:49;17.80;58.00
78876;DHT22;68253;52.506;5.486;2023-03-13T02:52:45;17.80;58.00
78876;DHT22;68253;52.506;5.486;2023-03-13T02:55:25;17.80;58.00
78876;DHT22;68253;52.506;5.486;2023-03-13T02:57:53;17.80;58.00
78876;DHT22;68253;52.506;5.486;2023-03-13T03:00:19;17.80;58.00
78876;DHT22;68253;52.506;5.486;2023-03-13T03:02:46;17.80;58.00
78876;DHT22;68253;52.506;5.486;2023-03-13T03:05:13;17.80;58.00
78876;DHT22;68253;52.506;5.486;2023-03-13T03:07:39;17.80;58.00
78876;DHT22;68253;52.506;5.486;2023-03-13T03:10:07;17.80;58.00
78876;DHT22;68253;52.506;5.486;2023-03-13T03:12:34;17.80;58.00
78876;DHT22;68253;52.506;5.486;2023-03-13T03:15:00;17.80;58.00
78876;DHT22;68253;52.506;5.486;2023-03-13T03:17:27;17.80;57.90
78876;DHT22;68253;52.506;5.486;2023-03-13T03:19:54;17.80;58.00
78876;DHT22;68253;52.506;5.486;2023-03-13T03:22:20;17.80;57.90
78876;DHT22;68253;52.506;5.486;2023-03-13T03:24:46;17.80;58.00
78876;DHT22;68253;52.506;5.486;2023-03-13T03:27:12;17.80;57.90
78876;DHT22;68253;52.506;5.486;2023-03-13T03:29:45;17.80;57.90
78876;DHT22;68253;52.506;5.486;2023-03-13T03:32:11;17.80;57.90
78876;DHT22;68253;52.506;5.486;2023-03-13T03:34:37;17.80;58.00
78876;DHT22;68253;52.506;5.486;2023-03-13T03:37:04;17.80;57.90
78876;DHT22;68253;52.506;5.486;2023-03-13T03:39:30;17.70;57.90
78876;DHT22;68253;52.506;5.486;2023-03-13T03:41:56;17.80;57.90
78876;DHT22;68253;52.506;5.486;2023-03-13T03:44:23;17.80;57.90
78876;DHT22;68253;52.506;5.486;2023-03-13T03:46:53;17.80;57.90
78876;DHT22;68253;52.506;5.486;2023-03-13T03:49:20;17.80;57.90
78876;DHT22;68253;52.506;5.486;2023-03-13T03:51:47;17.70;57.90
78876;DHT22;68253;52.506;5.486;2023-03-13T03:54:14;17.70;57.90
78876;DHT22;68253;52.506;5.486;2023-03-13T03:56:41;17.80;57.90
78876;DHT22;68253;52.506;5.486;2023-03-13T03:59:07;17.80;57.90
78876;DHT22;68253;52.506;5.486;2023-03-13T04:01:42;17.80;57.90
78876;DHT22;68253;52.506;5.486;2023-03-13T04:04:09;17.70;57.90
78876;DHT22;68253;52.506;5.486;2023-03-13T04:06:37;17.70;57.90
78876;DHT22;68253;52.506;5.486;2023-03-13T04:09:05;17.70;57.90
78876;DHT22;68253;52.506;5.486;2023-03-13T04:11:31;17.80;57.90
78876;DHT22;68253;52.506;5.486;2023-03-13T04:13:58;17.70;57.90
78876;DHT22;68253;52.506;5.486;2023-03-13T04:16:24;17.70;57.90
78876;DHT22;68253;52.506;5.486;2023-03-13T04:18:52;17.80;57.90
78876;DHT22;68253;52.506;5.486;2023-03-13T04:21:19;17.70;57.90
78876;DHT22;68253;52.506;5.486;2023-03-13T04:23:53;17.80;57.90
78876;DHT22;68253;52.506;5.486;2023-03-13T04:26:22;17.70;57.90
78876;DHT22;68253;52.506;5.486;2023-03-13T04:28:51;17.70;57.90
78876;DHT22;68253;52.506;5.486;2023-03-13T04:31:26;17.70;57.90
78876;DHT22;68253;52.506;5.486;2023-03-13T04:34:12;17.70;57.90
78876;DHT22;68253;52.506;5.486;2023-03-13T04:37:05;17.70;57.90
78876;DHT22;68253;52.506;5.486;2023-03-13T04:40:09;17.60;57.90
78876;DHT22;68253;52.506;5.486;2023-03-13T04:42:57;17.60;57.90
78876;DHT22;68253;52.506;5.486;2023-03-13T04:45:39;17.60;57.90
78876;DHT22;68253;52.506;5.486;2023-03-13T04:48:17;17.60;57.90
78876;DHT22;68253;52.506;5.486;2023-03-13T04:50:54;17.50;58.00
78876;DHT22;68253;52.506;5.486;2023-03-13T04:53:41;17.60;57.90
78876;DHT22;68253;52.506;5.486;2023-03-13T04:56:28;17.60;57.90
78876;DHT22;68253;52.506;5.486;2023-03-13T04:59:12;17.60;57.90
78876;DHT22;68253;52.506;5.486;2023-03-13T05:01:57;17.60;57.90
78876;DHT22;68253;52.506;5.486;2023-03-13T05:04:37;17.60;57.90
78876;DHT22;68253;52.506;5.486;2023-03-13T05:07:16;17.60;57.90
78876;DHT22;68253;52.506;5.486;2023-03-13T05:09:54;17.60;57.90
78876;DHT22;68253;52.506;5.486;2023-03-13T05:12:43;17.60;57.90
78876;DHT22;68253;52.506;5.486;2023-03-13T05:15:17;17.60;57.90
78876;DHT22;68253;52.506;5.486;2023-03-13T05:18:01;17.60;57.90
78876;DHT22;68253;52.506;5.486;2023-03-13T05:20:37;17.60;57.90
78876;DHT22;68253;52.506;5.486;2023-03-13T05:23:41;17.60;57.90
78876;DHT22;68253;52.506;5.486;2023-03-13T05:26:26;17.60;57.90
78876;DHT22;68253;52.506;5.486;2023-03-13T05:29:24;17.60;57.90
78876;DHT22;68253;52.506;5.486;2023-03-13T05:32:13;17.60;57.90
78876;DHT22;68253;52.506;5.486;2023-03-13T05:34:57;17.60;57.90
78876;DHT22;68253;52.506;5.486;2023-03-13T05:37:58;17.60;57.90
78876;DHT22;68253;52.506;5.486;2023-03-13T05:40:43;17.50;57.90
78876;DHT22;68253;52.506;5.486;2023-03-13T05:43:29;17.60;58.00
78876;DHT22;68253;52.506;5.486;2023-03-13T05:46:12;17.50;58.00
78876;DHT22;68253;52.506;5.486;2023-03-13T05:48:52;17.60;58.00
78876;DHT22;68253;52.506;5.486;2023-03-13T05:51:42;17.60;58.00
78876;DHT22;68253;52.506;5.486;2023-03-13T05:54:44;17.50;58.00
78876;DHT22;68253;52.506;5.486;2023-03-13T05:57:22;17.50;58.00
78876;DHT22;68253;52.506;5.486;2023-03-13T06:00:06;17.50;58.00
78876;DHT22;68253;52.506;5.486;2023-03-13T06:02:54;17.50;58.00
78876;DHT22;68253;52.506;5.486;2023-03-13T06:05:27;17.50;58.00
78876;DHT22;68253;52.506;5.486;2023-03-13T06:07:54;17.60;58.00
78876;DHT22;68253;52.506;5.486;2023-03-13T06:10:20;17.50;58.00
78876;DHT22;68253;52.506;5.486;2023-03-13T06:12:53;17.60;57.90
78876;DHT22;68253;52.506;5.486;2023-03-13T06:15:21;17.60;58.00
78876;DHT22;68253;52.506;5.486;2023-03-13T06:17:57;17.60;58.00
78876;DHT22;68253;52.506;5.486;2023-03-13T06:20:23;17.60;57.90
78876;DHT22;68253;52.506;5.486;2023-03-13T06:22:49;17.60;58.00
78876;DHT22;68253;52.506;5.486;2023-03-13T06:25:16;17.60;57.90
78876;DHT22;68253;52.506;5.486;2023-03-13T06:27:42;17.60;57.90
78876;DHT22;68253;52.506;5.486;2023-03-13T06:30:09;17.60;57.90
78876;DHT22;68253;52.506;5.486;2023-03-13T06:32:35;17.60;57.90
78876;DHT22;68253;52.506;5.486;2023-03-13T06:35:01;17.60;57.90
78876;DHT22;68253;52.506;5.486;2023-03-13T06:37:27;17.60;57.90
78876;DHT22;68253;52.506;5.486;2023-03-13T06:39:54;17.60;57.90
78876;DHT22;68253;52.506;5.486;2023-03-13T06:42:20;17.60;57.90
78876;DHT22;68253;52.506;5.486;2023-03-13T06:44:46;17.60;57.90
78876;DHT22;68253;52.506;5.486;2023-03-13T06:47:12;17.60;57.90
78876;DHT22;68253;52.506;5.486;2023-03-13T06:49:38;17.60;57.90
78876;DHT22;68253;52.506;5.486;2023-03-13T06:52:04;17.60;57.90
78876;DHT22;68253;52.506;5.486;2023-03-13T06:54:30;17.60;57.90
78876;DHT22;68253;52.506;5.486;2023-03-13T06:56:56;17.60;57.90
78876;DHT22;68253;52.506;5.486;2023-03-13T06:59:23;17.60;57.90
78876;DHT22;68253;52.506;5.486;2023-03-13T07:01:49;17.60;57.90
78876;DHT22;68253;52.506;5.486;2023-03-13T07:04:15;17.60;57.90
78876;DHT22;68253;52.506;5.486;2023-03-13T07:06:41;17.60;57.90
78876;DHT22;68253;52.506;5.486;2023-03-13T07:09:08;17.60;57.90
78876;DHT22;68253;52.506;5.486;2023-03-13T07:11:35;17.60;57.90
78876;DHT22;68253;52.506;5.486;2023-03-13T07:14:01;17.60;58.00
78876;DHT22;68253;52.506;5.486;2023-03-13T07:16:27;17.60;57.90
78876;DHT22;68253;52.506;5.486;2023-03-13T07:18:53;17.60;57.90
78876;DHT22;68253;52.506;5.486;2023-03-13T07:21:19;17.60;57.90
78876;DHT22;68253;52.506;5.486;2023-03-13T07:23:45;17.60;57.90
78876;DHT22;68253;52.506;5.486;2023-03-13T07:26:14;17.60;57.90
78876;DHT22;68253;52.506;5.486;2023-03-13T07:28:41;17.60;57.90
78876;DHT22;68253;52.506;5.486;2023-03-13T07:31:13;17.60;58.00
78876;DHT22;68253;52.506;5.486;2023-03-13T07:33:40;17.60;58.00
78876;DHT22;68253;52.506;5.486;2023-03-13T07:36:08;17.60;58.00
78876;DHT22;68253;52.506;5.486;2023-03-13T07:38:35;17.60;58.00
78876;DHT22;68253;52.506;5.486;2023-03-13T07:41:02;17.60;58.00
78876;DHT22;68253;52.506;5.486;2023-03-13T07:43:28;17.60;58.00
78876;DHT22;68253;52.506;5.486;2023-03-13T07:45:58;17.50;58.00
78876;DHT22;68253;52.506;5.486;2023-03-13T07:48:28;17.60;58.00
78876;DHT22;68253;52.506;5.486;2023-03-13T07:50:55;17.50;58.00
78876;DHT22;68253;52.506;5.486;2023-03-13T07:53:22;17.50;58.00
78876;DHT22;68253;52.506;5.486;2023-03-13T07:55:56;17.50;58.00
78876;DHT22;68253;52.506;5.486;2023-03-13T07:58:24;17.60;58.00
78876;DHT22;68253;52.506;5.486;2023-03-13T08:00:50;17.50;58.00
78876;DHT22;68253;52.506;5.486;2023-03-13T08:03:17;17.50;58.00
78876;DHT22;68253;52.506;5.486;2023-03-13T08:05:43;17.50;58.00
78876;DHT22;68253;52.506;5.486;2023-03-13T08:08:09;17.50;58.00
78876;DHT22;68253;52.506;5.486;2023-03-13T08:10:36;17.50;58.00
78876;DHT22;68253;52.506;5.486;2023-03-13T08:13:02;17.50;58.10
78876;DHT22;68253;52.506;5.486;2023-03-13T08:15:28;17.50;58.10
78876;DHT22;68253;52.506;5.486;2023-03-13T08:17:55;17.50;58.10
78876;DHT22;68253;52.506;5.486;2023-03-13T08:20:22;17.50;58.00
78876;DHT22;68253;52.506;5.486;2023-03-13T08:22:48;17.60;58.00
78876;DHT22;68253;52.506;5.486;2023-03-13T08:25:17;17.70;58.00
78876;DHT22;68253;52.506;5.486;2023-03-13T08:27:43;17.80;57.90
78876;DHT22;68253;52.506;5.486;2023-03-13T08:30:10;17.80;57.90
78876;DHT22;68253;52.506;5.486;2023-03-13T08:32:36;18.00;57.80
78876;DHT22;68253;52.506;5.486;2023-03-13T08:35:03;18.00;57.80
78876;DHT22;68253;52.506;5.486;2023-03-13T08:37:29;18.00;57.80
78876;DHT22;68253;52.506;5.486;2023-03-13T08:39:55;18.10;57.80
78876;DHT22;68253;52.506;5.486;2023-03-13T08:42:22;18.10;57.90
78876;DHT22;68253;52.506;5.486;2023-03-13T08:44:48;18.20;58.00
78876;DHT22;68253;52.506;5.486;2023-03-13T08:47:15;18.30;58.00
78876;DHT22;68253;52.506;5.486;2023-03-13T08:49:43;18.30;58.00
78876;DHT22;68253;52.506;5.486;2023-03-13T08:52:09;18.40;58.00
78876;DHT22;68253;52.506;5.486;2023-03-13T08:54:35;18.40;58.00
78876;DHT22;68253;52.506;5.486;2023-03-13T08:57:01;18.50;58.00
78876;DHT22;68253;52.506;5.486;2023-03-13T08:59:28;18.60;58.10
78876;DHT22;68253;52.506;5.486;2023-03-13T09:01:54;18.60;58.00
78876;DHT22;68253;52.506;5.486;2023-03-13T09:04:20;18.70;58.00
78876;DHT22;68253;52.506;5.486;2023-03-13T09:06:46;18.70;58.00
78876;DHT22;68253;52.506;5.486;2023-03-13T09:09:13;18.80;58.10
78876;DHT22;68253;52.506;5.486;2023-03-13T09:11:39;18.80;58.10
78876;DHT22;68253;52.506;5.486;2023-03-13T09:14:06;18.90;58.10
78876;DHT22;68253;52.506;5.486;2023-03-13T09:16:33;18.90;58.10
78876;DHT22;68253;52.506;5.486;2023-03-13T09:19:00;19.00;58.10
78876;DHT22;68253;52.506;5.486;2023-03-13T09:21:31;19.00;58.10
78876;DHT22;68253;52.506;5.486;2023-03-13T09:23:58;19.10;58.10
78876;DHT22;68253;52.506;5.486;2023-03-13T09:26:25;19.10;58.10
78876;DHT22;68253;52.506;5.486;2023-03-13T09:28:53;19.20;58.10
78876;DHT22;68253;52.506;5.486;2023-03-13T09:31:25;19.20;58.20
78876;DHT22;68253;52.506;5.486;2023-03-13T09:33:52;19.30;58.20
78876;DHT22;68253;52.506;5.486;2023-03-13T09:36:19;19.30;58.10
78876;DHT22;68253;52.506;5.486;2023-03-13T09:38:45;19.40;58.20
78876;DHT22;68253;52.506;5.486;2023-03-13T09:41:31;19.40;58.10
78876;DHT22;68253;52.506;5.486;2023-03-13T09:44:13;19.50;58.10
78876;DHT22;68253;52.506;5.486;2023-03-13T09:46:46;19.50;58.10
78876;DHT22;68253;52.506;5.486;2023-03-13T09:49:24;19.50;58.10
78876;DHT22;68253;52.506;5.486;2023-03-13T09:51:59;19.50;58.10
78876;DHT22;68253;52.506;5.486;2023-03-13T09:54:47;19.50;58.10
78876;DHT22;68253;52.506;5.486;2023-03-13T09:57:15;19.50;58.10
78876;DHT22;68253;52.506;5.486;2023-03-13T09:59:50;19.50;58.20
78876;DHT22;68253;52.506;5.486;2023-03-13T10:02:27;19.60;58.20
78876;DHT22;68253;52.506;5.486;2023-03-13T10:05:14;19.60;58.30
78876;DHT22;68253;52.506;5.486;2023-03-13T10:07:41;19.60;58.30
78876;DHT22;68253;52.506;5.486;2023-03-13T10:10:33;19.50;58.30
78876;DHT22;68253;52.506;5.486;2023-03-13T10:13:14;19.60;58.40
78876;DHT22;68253;52.506;5.486;2023-03-13T10:15:47;19.60;58.50
78876;DHT22;68253;52.506;5.486;2023-03-13T10:18:20;19.60;58.50
78876;DHT22;68253;52.506;5.486;2023-03-13T10:20:52;19.60;58.50
78876;DHT22;68253;52.506;5.486;2023-03-13T10:23:50;19.70;58.60
78876;DHT22;68253;52.506;5.486;2023-03-13T10:26:22;19.70;58.60
78876;DHT22;68253;52.506;5.486;2023-03-13T10:28:50;19.70;58.60
78876;DHT22;68253;52.506;5.486;2023-03-13T10:33:45;19.70;58.60
78876;DHT22;68253;52.506;5.486;2023-03-13T10:36:12;19.70;58.60
78876;DHT22;68253;52.506;5.486;2023-03-13T10:38:53;19.70;58.60
78876;DHT22;68253;52.506;5.486;2023-03-13T10:41:30;19.80;58.60
78876;DHT22;68253;52.506;5.486;2023-03-13T10:44:02;19.80;58.60
78876;DHT22;68253;52.506;5.486;2023-03-13T10:46:31;19.80;58.60
78876;DHT22;68253;52.506;5.486;2023-03-13T10:49:01;19.80;58.60
78876;DHT22;68253;52.506;5.486;2023-03-13T10:51:36;19.90;58.50
78876;DHT22;68253;52.506;5.486;2023-03-13T10:54:13;19.90;58.60
78876;DHT22;68253;52.506;5.486;2023-03-13T10:56:39;19.90;58.50
78876;DHT22;68253;52.506;5.486;2023-03-13T10:59:26;19.90;58.50
78876;DHT22;68253;52.506;5.486;2023-03-13T11:01:57;19.90;58.50
78876;DHT22;68253;52.506;5.486;2023-03-13T11:04:35;19.90;58.60
78876;DHT22;68253;52.506;5.486;2023-03-13T11:07:27;19.90;58.60
78876;DHT22;68253;52.506;5.486;2023-03-13T11:09:57;19.90;58.60
78876;DHT22;68253;52.506;5.486;2023-03-13T11:12:24;19.90;58.60
78876;DHT22;68253;52.506;5.486;2023-03-13T11:14:59;20.00;58.60
78876;DHT22;68253;52.506;5.486;2023-03-13T11:17:39;20.00;58.60
78876;DHT22;68253;52.506;5.486;2023-03-13T11:20:21;20.00;58.50
78876;DHT22;68253;52.506;5.486;2023-03-13T11:25:45;20.10;58.50
78876;DHT22;68253;52.506;5.486;2023-03-13T11:34:03;20.10;58.60
78876;DHT22;68253;52.506;5.486;2023-03-13T11:39:35;20.10;58.50
78876;DHT22;68253;52.506;5.486;2023-03-13T11:56:19;20.10;58.60
78876;DHT22;68253;52.506;5.486;2023-03-13T11:59:15;20.10;58.60
78876;DHT22;68253;52.506;5.486;2023-03-13T12:01:54;20.10;58.60
78876;DHT22;68253;52.506;5.486;2023-03-13T12:04:35;20.10;58.60
78876;DHT22;68253;52.506;5.486;2023-03-13T12:09:58;20.10;58.70
78876;DHT22;68253;52.506;5.486;2023-03-13T12:15:33;20.20;58.70
78876;DHT22;68253;52.506;5.486;2023-03-13T12:18:18;20.20;58.70
78876;DHT22;68253;52.506;5.486;2023-03-13T12:20:51;20.20;58.70
78876;DHT22;68253;52.506;5.486;2023-03-13T12:23:41;20.30;58.70
78876;DHT22;68253;52.506;5.486;2023-03-13T12:26:15;20.30;58.70
78876;DHT22;68253;52.506;5.486;2023-03-13T12:31:49;20.30;58.70
78876;DHT22;68253;52.506;5.486;2023-03-13T12:34:22;20.40;58.60
78876;DHT22;68253;52.506;5.486;2023-03-13T12:37:00;20.30;58.70
78876;DHT22;68253;52.506;5.486;2023-03-13T12:45:00;20.40;58.60
78876;DHT22;68253;52.506;5.486;2023-03-13T12:47:32;20.30;58.60
78876;DHT22;68253;52.506;5.486;2023-03-13T12:50:20;20.40;58.60
78876;DHT22;68253;52.506;5.486;2023-03-13T12:55:36;20.40;58.50
78876;DHT22;68253;52.506;5.486;2023-03-13T13:01:04;20.50;58.50
78876;DHT22;68253;52.506;5.486;2023-03-13T13:03:37;20.50;58.50
78876;DHT22;68253;52.506;5.486;2023-03-13T13:06:14;20.50;58.50
78876;DHT22;68253;52.506;5.486;2023-03-13T13:17:00;20.50;58.50
78876;DHT22;68253;52.506;5.486;2023-03-13T13:32:38;20.40;58.60
78876;DHT22;68253;52.506;5.486;2023-03-13T13:37:32;20.50;58.50
78876;DHT22;68253;52.506;5.486;2023-03-13T13:40:18;20.50;58.50
78876;DHT22;68253;52.506;5.486;2023-03-13T13:43:03;20.50;58.40
78876;DHT22;68253;52.506;5.486;2023-03-13T13:45:36;20.50;58.50
78876;DHT22;68253;52.506;5.486;2023-03-13T13:48:31;20.50;58.50
78876;DHT22;68253;52.506;5.486;2023-03-13T13:53:50;20.40;58.50
78876;DHT22;68253;52.506;5.486;2023-03-13T13:59:12;20.40;58.40
78876;DHT22;68253;52.506;5.486;2023-03-13T14:01:41;20.40;58.40
78876;DHT22;68253;52.506;5.486;2023-03-13T14:04:22;20.40;58.40
78876;DHT22;68253;52.506;5.486;2023-03-13T14:06:51;20.40;58.40
78876;DHT22;68253;52.506;5.486;2023-03-13T14:09:48;20.40;58.40
78876;DHT22;68253;52.506;5.486;2023-03-13T14:12:31;20.50;58.30
78876;DHT22;68253;52.506;5.486;2023-03-13T14:15:18;20.40;58.40
78876;DHT22;68253;52.506;5.486;2023-03-13T14:17:50;20.40;58.30
78876;DHT22;68253;52.506;5.486;2023-03-13T14:22:53;20.50;58.30
78876;DHT22;68253;52.506;5.486;2023-03-13T14:25:21;20.40;58.30
78876;DHT22;68253;52.506;5.486;2023-03-13T14:27:49;20.50;58.30
78876;DHT22;68253;52.506;5.486;2023-03-13T14:30:18;20.50;58.30
78876;DHT22;68253;52.506;5.486;2023-03-13T14:32:44;20.50;58.20
78876;DHT22;68253;52.506;5.486;2023-03-13T14:35:15;20.50;58.20
78876;DHT22;68253;52.506;5.486;2023-03-13T14:37:44;20.50;58.20
78876;DHT22;68253;52.506;5.486;2023-03-13T14:42:54;20.50;58.20
78876;DHT22;68253;52.506;5.486;2023-03-13T14:45:32;20.50;58.20
78876;DHT22;68253;52.506;5.486;2023-03-13T14:48:48;20.50;58.10
78876;DHT22;68253;52.506;5.486;2023-03-13T14:50:52;20.50;58.20
78876;DHT22;68253;52.506;5.486;2023-03-13T14:53:21;20.50;58.20
78876;DHT22;68253;52.506;5.486;2023-03-13T14:56:07;20.50;58.10
78876;DHT22;68253;52.506;5.486;2023-03-13T14:58:34;20.50;58.10
78876;DHT22;68253;52.506;5.486;2023-03-13T15:01:12;20.50;58.10
78876;DHT22;68253;52.506;5.486;2023-03-13T15:03:44;20.50;58.10
78876;DHT22;68253;52.506;5.486;2023-03-13T15:06:13;20.50;58.10
78876;DHT22;68253;52.506;5.486;2023-03-13T15:08:42;20.50;58.10
78876;DHT22;68253;52.506;5.486;2023-03-13T15:13:43;20.50;58.00
78876;DHT22;68253;52.506;5.486;2023-03-13T15:16:20;20.50;58.10
78876;DHT22;68253;52.506;5.486;2023-03-13T15:18:48;20.50;58.00
78876;DHT22;68253;52.506;5.486;2023-03-13T15:23:51;20.50;58.10
78876;DHT22;68253;52.506;5.486;2023-03-13T15:26:17;20.50;58.00
78876;DHT22;68253;52.506;5.486;2023-03-13T15:28:43;20.50;58.00
78876;DHT22;68253;52.506;5.486;2023-03-13T15:31:11;20.40;58.10
78876;DHT22;68253;52.506;5.486;2023-03-13T15:33:39;20.50;58.00
78876;DHT22;68253;52.506;5.486;2023-03-13T15:36:05;20.40;58.00
78876;DHT22;68253;52.506;5.486;2023-03-13T15:38:32;20.40;58.00
78876;DHT22;68253;52.506;5.486;2023-03-13T15:40:58;20.30;58.00
78876;DHT22;68253;52.506;5.486;2023-03-13T15:43:24;20.30;58.10
78876;DHT22;68253;52.506;5.486;2023-03-13T15:45:51;20.30;58.10
78876;DHT22;68253;52.506;5.486;2023-03-13T15:50:50;20.30;58.10
78876;DHT22;68253;52.506;5.486;2023-03-13T15:53:34;20.30;58.10
78876;DHT22;68253;52.506;5.486;2023-03-13T15:56:01;20.20;58.10
78876;DHT22;68253;52.506;5.486;2023-03-13T15:58:29;20.20;58.10
78876;DHT22;68253;52.506;5.486;2023-03-13T16:00:56;20.20;58.10
78876;DHT22;68253;52.506;5.486;2023-03-13T16:03:24;20.20;58.10
78876;DHT22;68253;52.506;5.486;2023-03-13T16:05:52;20.20;58.10
78876;DHT22;68253;52.506;5.486;2023-03-13T16:08:26;20.10;58.10
78876;DHT22;68253;52.506;5.486;2023-03-13T16:10:53;20.10;58.10
78876;DHT22;68253;52.506;5.486;2023-03-13T16:13:20;20.10;58.20
78876;DHT22;68253;52.506;5.486;2023-03-13T16:15:46;20.10;58.10
78876;DHT22;68253;52.506;5.486;2023-03-13T16:18:22;20.10;58.10
78876;DHT22;68253;52.506;5.486;2023-03-13T16:20:51;20.10;58.10
78876;DHT22;68253;52.506;5.486;2023-03-13T16:23:17;20.00;58.10
78876;DHT22;68253;52.506;5.486;2023-03-13T16:25:44;20.00;58.10
78876;DHT22;68253;52.506;5.486;2023-03-13T16:28:12;20.00;58.10
78876;DHT22;68253;52.506;5.486;2023-03-13T16:30:39;20.00;58.10
78876;DHT22;68253;52.506;5.486;2023-03-13T16:33:06;20.00;58.10
78876;DHT22;68253;52.506;5.486;2023-03-13T16:35:32;20.00;58.10
78876;DHT22;68253;52.506;5.486;2023-03-13T16:37:58;20.00;58.10
78876;DHT22;68253;52.506;5.486;2023-03-13T16:40:30;20.00;58.10
78876;DHT22;68253;52.506;5.486;2023-03-13T16:42:57;20.00;58.10
78876;DHT22;68253;52.506;5.486;2023-03-13T16:45:24;20.00;58.10
78876;DHT22;68253;52.506;5.486;2023-03-13T16:47:50;19.90;58.10
78876;DHT22;68253;52.506;5.486;2023-03-13T16:50:33;19.90;58.10
78876;DHT22;68253;52.506;5.486;2023-03-13T16:53:00;19.90;58.10
78876;DHT22;68253;52.506;5.486;2023-03-13T16:55:26;19.90;58.10
78876;DHT22;68253;52.506;5.486;2023-03-13T16:57:55;19.90;58.10
78876;DHT22;68253;52.506;5.486;2023-03-13T17:00:22;19.90;58.10
78876;DHT22;68253;52.506;5.486;2023-03-13T17:02:49;19.90;58.10
78876;DHT22;68253;52.506;5.486;2023-03-13T17:05:16;19.90;58.00
78876;DHT22;68253;52.506;5.486;2023-03-13T17:07:44;19.90;58.00
78876;DHT22;68253;52.506;5.486;2023-03-13T17:10:23;19.90;58.00
78876;DHT22;68253;52.506;5.486;2023-03-13T17:12:50;19.90;58.00
78876;DHT22;68253;52.506;5.486;2023-03-13T17:15:17;19.90;58.00
78876;DHT22;68253;52.506;5.486;2023-03-13T17:17:44;19.80;58.00
78876;DHT22;68253;52.506;5.486;2023-03-13T17:20:21;19.80;58.00
78876;DHT22;68253;52.506;5.486;2023-03-13T17:22:48;19.80;58.00
78876;DHT22;68253;52.506;5.486;2023-03-13T17:25:14;19.80;58.00
78876;DHT22;68253;52.506;5.486;2023-03-13T17:27:40;19.80;58.00
78876;DHT22;68253;52.506;5.486;2023-03-13T17:30:23;19.80;58.00
78876;DHT22;68253;52.506;5.486;2023-03-13T17:32:50;19.90;58.00
78876;DHT22;68253;52.506;5.486;2023-03-13T17:35:17;19.70;58.00
78876;DHT22;68253;52.506;5.486;2023-03-13T17:37:44;19.80;58.00
78876;DHT22;68253;52.506;5.486;2023-03-13T17:42:40;19.80;57.90